CheckWX is a tool to help pilots better visualize weather data.  It is not intended as a substitute for an official pre-flight weather briefing.

09:11:55 UTC

KADF METAR
Dexter B Florence Memorial Field Airport
Arkadelphia, Arkansas, USA
Current

16 mins ago

KADF 190856Z AUTO 00000KT 10SM OVC007 18/18 A2978 RMK AO2 SLP086 60002 T01780178 53004
Observed
May-19 @ 08:56 UTC
Visibility
10 SM
Flight Rules
IFR
Cloud Levels
  • Overcast at 700' AGL
Temperature
18°C / 64°F
Dewpoint
18°C / 64°F
Humidity
100%
Altimeter
29.78" Hg
Pressure
1008.42 hPa
Previous

1 hour ago

KADF 190756Z AUTO 04003KT 10SM OVC009 18/18 A2977 RMK AO2 SLP082 T01830183
Observed
May-19 @ 07:56 UTC
Wind
  • 040° at 3 KTS
Visibility
10 SM
Flight Rules
IFR
Cloud Levels
  • Overcast at 900' AGL
Temperature
18°C / 64°F
Dewpoint
18°C / 64°F
Humidity
100%
Altimeter
29.77" Hg
Pressure
1008.12 hPa
Previous

2 hours ago

KADF 190656Z AUTO 00000KT 10SM OVC011 18/18 A2977 RMK AO2 TSE20RAE25 SLP082 P0002 T01830183
Observed
May-19 @ 06:56 UTC
Visibility
10 SM
Flight Rules
MVFR
Cloud Levels
  • Overcast at 1,100' AGL
Temperature
18°C / 64°F
Dewpoint
18°C / 64°F
Humidity
100%
Altimeter
29.77" Hg
Pressure
1008.12 hPa
Current Rain
0.02"